Airfield :







YOU CAN JOIN US ON...

 
LOGIN :

Register | Disclaimer

   EN    FR    IT 

 









Legend :    VFR   Marginal VFR   IFR   Intensive IFR   Very Intensive IFR
Visi :
Ceiling :
>= 8 km
>= 3000ft
5 to 8 km
1000 to 3000 ft
1500m to 5 km
500 to 1000 ft
800 to 1500m
200 to 500 ft
< 800m
< 200 ft
Symbols :   Thunderstorms  Fog  Heavy snow  Heavy precipitations  Wind > 20 kt






- Airport Elevation : 92 ft
- IATA code : YZX


CYZX - CFB Greenwood

CURRENT METAR :
  • 260400Z 00000KT 15SM FEW045 10/07 A3026 RMK CU1 SLP247

EXPIRED METARs :
  • 260300Z 34002KT 15SM FEW040 11/07 A3025 RMK SC1 SLP245
  • 260200Z 00000KT 15SM FEW045 FEW250 12/06 A3026 RMK SC1CI1 SLP248

TAF TAF CYZX
Valid from the 26 at 00:00 until the 27 at 00:00 UTC


252330Z 2600/2624 29008KT P6SM FEW040 BKN250
BECMG 2600/2602 VRB03KT
FM260400 VRB03KT P6SM BKN025 BKN250
TEMPO 2605/2608 OVC020
FM260800 22005KT P6SM OVC015
TEMPO 2608/2612 4SM -DZ BR OVC012
FM261300 23008KT P6SM BKN020
FM261500 25010KT P6SM BKN025
BECMG 2616/2618 SCT030 BKN250
FM261800 25012G22KT P6SM SCT040 BKN250
FM262300 25008KT P6SM BKN025 BKN250 RMK NXT FCST BY 260600Z
CZQM FIR / North America



MET'MAP, your aeronautical weather chart ! - Copyright ORBIFLY December 2007 - Disclaimer

ORBIFLY MET'MAP TEAM :

Programming & Development : Alexandra Zaïnal
Concept & original design : Baudouin d'Aumeries
Assistance for programming : Marc-Olivier Méhu
Technical & hardware support : Manuel Goepfert

Contact : metmap@orbifly.com




SOURCES & CREDITS :

   NOAA